Coitsville, Ohio
Current Conditions -  °F | °C
As of 6:51 PM on Wednesday 22 Oct 2014 (Local Time) from KYNG Reporting Station
Broken Clouds Broken Clouds  
Wind Chill: 43°   Ceiling: 1700
Heat Index: 47°   Visibility: 10mi
Dew Point: 41°   Wind: 9mph
Humidity: 80%   Direction: 350°N
Pressure: 30.21"   Gusts: NA
Location:  41.0609°N, 80.5426°W
Report Text: KYNG 222251Z 35008KT 10SM BKN017 08/05 A3021 RMK AO2 SLP234 T00830050
Loading
Personal Weather Stations






























Interactive Weather Map
Tropical Storm Tracking
New forecast layout! Learn more

10-Day Weather Forecast

Advertisements
Track Severe Weather on mobile